Time;durP1;ratioP1;P1;durP2;ratioP2;P2;SDS_P1;SDS_P2;PMS_P1;PMS_P2;Temp;Humidity;BMP_temperature;BMP_pressure;BME280_temperature;BME280_humidity;BME280_pressure;Samples;Min_cycle;Max_cycle;Signal;HPM_P1;HPM_P2
2022/05/19 00:04:56;;;;;;;5.35;4.50;;;;;;;20.27;80.74;101572.53;25688584;23;20025;-64
2022/05/19 00:15:00;;;;;;;6.10;4.75;;;;;;;20.26;80.54;101575.34;25688215;23;20028;-64
2022/05/19 00:25:02;;;;;;;5.65;4.68;;;;;;;20.24;80.60;101563.81;25686978;23;20024;-64
2022/05/19 00:35:04;;;;;;;5.90;4.47;;;;;;;20.22;80.55;101561.25;25634786;23;20016;-64
2022/05/19 00:45:06;;;;;;;5.43;4.75;;;;;;;20.21;80.67;101556.84;25660846;23;20078;-63
2022/05/19 00:55:12;;;;;;;7.68;5.65;;;;;;;20.14;80.73;101534.91;25661429;23;20402;-64
2022/05/19 01:05:18;;;;;;;6.40;5.18;;;;;;;20.13;80.63;101535.88;25659572;23;20082;-64
2022/05/19 01:15:21;;;;;;;5.93;5.10;;;;;;;20.17;80.05;101533.78;25636056;23;20337;-63
2022/05/19 01:25:52;;;;;;;6.10;5.35;;;;;;;20.16;80.23;101542.00;25660351;23;20455;-63
2022/05/19 01:35:53;;;;;;;6.40;5.50;;;;;;;20.13;79.99;101522.38;25686125;23;20032;-63
2022/05/19 01:46:10;;;;;;;7.80;6.80;;;;;;;20.12;79.96;101507.16;25682469;23;20108;-64
2022/05/19 01:56:25;;;;;;;7.00;6.30;;;;;;;20.10;79.72;101501.03;25651721;23;20035;-64
2022/05/19 02:06:42;;;;;;;8.70;6.95;;;;;;;20.08;79.41;101486.78;25676438;23;20024;-64
2022/05/19 02:16:44;;;;;;;8.65;6.28;;;;;;;20.06;78.96;101472.56;25646455;23;20017;-64
2022/05/19 02:26:46;;;;;;;7.63;6.32;;;;;;;19.89;78.83;101432.66;25680319;23;20016;-64
2022/05/19 02:36:47;;;;;;;7.32;6.63;;;;;;;20.04;78.76;101452.91;25683099;23;20328;-64
2022/05/19 02:46:48;;;;;;;6.63;5.93;;;;;;;19.95;78.27;101432.13;25682320;23;20029;-64
2022/05/19 02:56:50;;;;;;;8.02;6.97;;;;;;;20.02;78.13;101449.50;25682591;23;20028;-64
2022/05/19 03:06:52;;;;;;;7.70;6.70;;;;;;;20.02;77.82;101438.69;25679024;23;20023;-64
2022/05/19 03:16:53;;;;;;;8.05;7.25;;;;;;;20.00;77.80;101436.09;25680580;23;20025;-64
2022/05/19 03:26:55;;;;;;;8.68;7.78;;;;;;;19.99;78.35;101420.06;25681572;23;20043;-63
2022/05/19 03:36:56;;;;;;;8.98;7.13;;;;;;;19.99;77.82;101415.47;25680066;23;20023;-63
2022/05/19 03:46:58;;;;;;;10.23;8.45;;;;;;;19.94;77.91;101414.22;25652834;23;20021;-64
2022/05/19 03:56:59;;;;;;;9.25;7.78;;;;;;;19.98;77.71;101423.75;25679993;23;20032;-63
2022/05/19 04:07:01;;;;;;;9.90;8.15;;;;;;;19.95;77.97;101432.13;25679695;23;20024;-64
2022/05/19 04:17:02;;;;;;;9.63;8.23;;;;;;;19.96;77.87;101444.66;25679860;23;20024;-64
2022/05/19 04:27:04;;;;;;;11.23;9.27;;;;;;;19.89;77.72;101417.28;25679259;23;20020;-63
2022/05/19 04:37:06;;;;;;;10.32;8.52;;;;;;;19.91;77.85;101407.22;25654847;23;20031;-63
2022/05/19 04:47:07;;;;;;;14.45;11.10;;;;;;;19.94;78.15;101408.81;25687155;23;20020;-64
2022/05/19 04:57:10;;;;;;;11.70;10.00;;;;;;;19.94;78.56;101446.63;25688784;23;20032;-64
2022/05/19 05:07:11;;;;;;;18.02;15.75;;;;;;;19.92;79.07;101454.03;25687424;23;20021;-63
2022/05/19 05:17:16;;;;;;;22.98;19.20;;;;;;;19.91;81.05;101465.81;25688300;23;20020;-64
2022/05/19 05:27:17;;;;;;;23.92;17.98;;;;;;;19.87;83.16;101481.41;25688213;23;20051;-63
2022/05/19 05:37:19;;;;;;;22.42;17.98;;;;;;;19.85;84.18;101470.72;25661175;23;20024;-63
2022/05/19 05:47:20;;;;;;;21.98;17.25;;;;;;;19.86;85.64;101482.41;25687096;23;20020;-63
2022/05/19 05:57:22;;;;;;;19.88;16.55;;;;;;;19.86;87.27;101469.72;25685724;23;20031;-64
2022/05/19 06:07:26;;;;;;;11.57;9.10;;;;;;;19.88;84.57;101485.81;25686572;23;20075;-63
2022/05/19 06:17:27;;;;;;;11.73;8.88;;;;;;;19.88;82.99;101480.41;25686369;23;20538;-64
2022/05/19 06:27:28;;;;;;;9.23;7.78;;;;;;;19.85;82.20;101478.81;25684184;23;20023;-64
2022/05/19 06:37:30;;;;;;;8.20;7.18;;;;;;;19.89;82.63;101454.25;25679097;23;20021;-64
2022/05/19 06:47:31;;;;;;;7.50;5.88;;;;;;;19.93;84.43;101436.81;25682313;23;20098;-64
2022/05/19 06:57:33;;;;;;;6.65;5.35;;;;;;;19.96;84.30;101439.25;25684084;23;20024;-64
2022/05/19 07:07:34;;;;;;;5.32;4.45;;;;;;;19.96;84.34;101455.47;25683276;23;20455;-64
2022/05/19 07:17:36;;;;;;;6.25;4.82;;;;;;;19.97;84.09;101470.69;25654086;23;20487;-64
2022/05/19 07:27:38;;;;;;;4.35;3.95;;;;;;;19.99;84.27;101474.09;25672479;23;20026;-64
2022/05/19 07:37:40;;;;;;;4.57;4.00;;;;;;;19.99;84.04;101482.22;25673590;23;20092;-64
2022/05/19 07:47:42;;;;;;;3.65;3.35;;;;;;;19.98;83.46;101515.63;25678478;23;20021;-64
2022/05/19 07:57:44;;;;;;;4.95;3.72;;;;;;;19.96;84.80;101509.50;25683445;23;20025;-64
2022/05/19 08:07:46;;;;;;;5.43;3.85;;;;;;;19.95;86.14;101534.81;25683365;23;20329;-64
2022/05/19 08:17:52;;;;;;;4.22;3.72;;;;;;;19.93;87.19;101507.06;25687779;23;20024;-64
2022/05/19 08:27:54;;;;;;;4.45;4.05;;;;;;;19.92;88.11;101448.63;25690615;23;20028;-64
2022/05/19 08:37:56;;;;;;;4.82;4.10;;;;;;;19.92;88.59;101491.84;25689942;23;20038;-64
2022/05/19 08:48:07;;;;;;;4.72;4.13;;;;;;;19.93;88.51;101466.53;25685030;23;20052;-64
2022/05/19 08:58:36;;;;;;;4.97;4.47;;;;;;;19.94;89.13;101474.50;25658892;23;20067;-64
2022/05/19 09:08:46;;;;;;;4.47;3.72;;;;;;;19.95;89.10;101473.50;25685461;23;20051;-63
2022/05/19 09:19:40;;;;;;;3.38;3.08;;;;;;;19.98;87.46;101475.09;25662068;23;20016;-64
2022/05/19 09:29:44;;;;;;;4.65;4.15;;;;;;;20.04;89.42;101469.13;25586232;23;20131;-64
2022/05/19 09:40:19;;;;;;;5.72;4.55;;;;;;;20.08;92.32;101458.88;25687459;23;20087;-64
2022/05/19 09:50:46;;;;;;;5.45;4.35;;;;;;;20.14;93.61;101470.03;25674235;23;20025;-64
2022/05/19 10:00:54;;;;;;;5.57;4.68;;;;;;;20.21;92.28;101454.13;25677106;23;20020;-64
2022/05/19 10:11:12;;;;;;;5.45;4.70;;;;;;;20.28;91.30;101451.69;25670794;23;20478;-64
2022/05/19 10:21:27;;;;;;;5.72;4.03;;;;;;;20.34;90.13;101451.16;25673305;23;20020;-64
2022/05/19 10:31:44;;;;;;;4.40;4.00;;;;;;;20.40;90.23;101442.50;25674844;23;20120;-65
2022/05/19 10:42:12;;;;;;;4.63;3.97;;;;;;;20.48;90.94;101422.84;25674643;23;20408;-64
2022/05/19 10:52:26;;;;;;;6.47;4.05;;;;;;;20.52;90.13;101377.44;25643820;23;20485;-64
2022/05/19 11:02:55;;;;;;;5.97;3.50;;;;;;;20.56;89.97;101349.09;25669398;23;20023;-62
2022/05/19 11:13:25;;;;;;;4.65;3.53;;;;;;;20.60;89.27;101303.69;25665537;23;20028;-64
2022/05/19 11:23:34;;;;;;;3.78;3.38;;;;;;;20.60;87.44;101295.59;25666158;23;20016;-64
2022/05/19 11:33:39;;;;;;;3.40;3.10;;;;;;;20.70;85.94;101339.69;25680789;23;20095;-64
2022/05/19 11:44:15;;;;;;;3.10;2.80;;;;;;;20.75;84.91;101358.19;25672780;23;20020;-64
2022/05/19 12:05:00;;;;;;;3.17;2.90;;;;;;;20.80;83.33;101332.44;25670967;23;20021;-64
2022/05/19 12:15:18;;;;;;;10.68;2.92;;;;;;;20.78;82.74;101310.06;25684960;23;20043;-64
2022/05/19 12:25:25;;;;;;;3.05;2.75;;;;;;;20.79;83.49;101310.97;25684079;23;20028;-64
2022/05/19 12:35:28;;;;;;;2.50;2.15;;;;;;;20.77;82.12;101310.19;25683632;23;20020;-64
2022/05/19 12:45:39;;;;;;;2.88;2.40;;;;;;;20.78;81.97;101333.59;25658754;23;20379;-65
2022/05/19 12:55:47;;;;;;;3.10;2.53;;;;;;;20.75;81.98;101325.72;25655386;23;20017;-64
2022/05/19 13:05:52;;;;;;;2.78;2.58;;;;;;;20.76;82.56;101390.53;25676439;23;20096;-65
2022/05/19 13:15:57;;;;;;;2.92;2.63;;;;;;;20.75;84.59;101421.28;25658995;23;20024;-66
2022/05/19 13:26:04;;;;;;;2.30;2.10;;;;;;;20.73;85.02;101502.59;25657884;23;20332;-63
2022/05/19 13:36:09;;;;;;;2.72;2.53;;;;;;;20.70;87.48;101588.59;25634345;23;20099;-63
2022/05/19 13:46:17;;;;;;;;;;;;;;;20.68;88.53;101631.19;25633130;23;20017;-63
2022/05/19 13:56:23;;;;;;;4.45;2.30;;;;;;;20.75;90.08;101623.34;25680178;23;19939;-63
2022/05/19 14:06:28;;;;;;;4.45;2.25;;;;;;;20.81;88.67;101520.03;25648653;23;20036;-63
2022/05/19 14:16:30;;;;;;;3.65;2.20;;;;;;;20.85;87.16;101429.44;25624426;23;20351;-63
2022/05/19 14:26:42;;;;;;;4.68;1.80;;;;;;;20.87;87.05;101413.91;25645847;23;20028;-63
2022/05/19 14:36:53;;;;;;;3.78;2.00;;;;;;;20.78;87.40;101376.88;25641738;23;20078;-63
2022/05/19 14:47:03;;;;;;;3.55;1.67;;;;;;;20.94;86.32;101379.00;25644351;23;20025;-64
2022/05/19 14:57:19;;;;;;;2.08;1.60;;;;;;;20.95;86.49;101359.91;25667957;23;20071;-63
2022/05/19 15:07:32;;;;;;;2.17;1.70;;;;;;;20.92;86.63;101333.16;25669560;23;20024;-62
2022/05/19 15:17:34;;;;;;;2.58;1.60;;;;;;;21.11;89.57;101323.25;25666012;23;20032;-59
2022/05/19 15:27:38;;;;;;;4.00;1.45;;;;;;;21.10;92.47;101302.59;25639788;23;20024;-60
2022/05/19 15:37:40;;;;;;;4.53;1.52;;;;;;;21.33;92.11;101334.72;25665028;23;20086;-64
2022/05/19 15:47:47;;;;;;;1.90;1.70;;;;;;;21.35;92.16;101357.09;25666250;23;20406;-64
2022/05/19 15:57:49;;;;;;;3.33;2.25;;;;;;;21.36;92.86;101346.09;25676231;23;20028;-62
2022/05/19 16:07:51;;;;;;;6.85;2.70;;;;;;;21.33;94.08;101361.81;25667046;23;20028;-62
2022/05/19 16:17:56;;;;;;;6.55;2.67;;;;;;;21.32;95.02;101374.47;25664050;23;20021;-63
2022/05/19 16:27:58;;;;;;;5.40;2.30;;;;;;;21.30;94.90;101406.28;25666820;23;20033;-62
2022/05/19 16:38:01;;;;;;;3.28;1.83;;;;;;;21.28;95.14;101409.16;25669321;23;20075;-62
2022/05/19 16:48:03;;;;;;;4.32;1.73;;;;;;;21.27;94.97;101439.06;25669218;23;20020;-63
2022/05/19 16:58:11;;;;;;;4.13;1.42;;;;;;;21.25;93.83;101450.06;25670032;23;20459;-63
2022/05/19 17:08:13;;;;;;;4.47;1.95;;;;;;;21.27;94.20;101455.31;25668446;23;20023;-61
2022/05/19 17:18:16;;;;;;;5.82;1.45;;;;;;;21.26;95.40;101459.03;25668777;23;20032;-63
2022/05/19 17:28:18;;;;;;;1.63;1.45;;;;;;;21.24;95.17;101456.47;25677892;23;20017;-64
2022/05/19 17:38:19;;;;;;;2.70;1.48;;;;;;;21.21;94.57;101461.31;25682602;23;20024;-64
2022/05/19 17:48:21;;;;;;;2.75;1.60;;;;;;;21.14;92.85;101475.44;25649869;23;20016;-65
2022/05/19 17:58:23;;;;;;;3.67;1.33;;;;;;;21.07;92.90;101484.25;25685210;23;20024;-63
2022/05/19 18:08:24;;;;;;;3.22;1.77;;;;;;;21.01;96.51;101491.97;25684435;23;20091;-65
2022/05/19 18:18:26;;;;;;;3.60;2.00;;;;;;;20.95;96.00;101511.47;25686599;23;20016;-64
2022/05/19 18:28:30;;;;;;;2.83;1.70;;;;;;;20.92;93.87;101549.66;25684473;23;20082;-64
2022/05/19 18:38:33;;;;;;;3.23;1.97;;;;;;;20.90;94.51;101567.91;25681685;23;20340;-65
2022/05/19 18:48:35;;;;;;;2.65;1.75;;;;;;;20.88;94.06;101588.84;25684277;23;20067;-64
2022/05/19 18:58:39;;;;;;;3.28;2.35;;;;;;;20.84;93.05;101600.94;25684369;23;20650;-64
2022/05/19 19:08:44;;;;;;;2.63;2.23;;;;;;;20.82;91.92;101619.16;25684249;23;20020;-64
2022/05/19 19:18:46;;;;;;;3.63;2.80;;;;;;;20.73;91.23;101616.22;25682303;23;20050;-64
2022/05/19 19:28:49;;;;;;;4.13;3.03;;;;;;;20.78;90.41;101644.75;25681162;23;20083;-64
2022/05/19 19:38:51;;;;;;;4.55;2.90;;;;;;;20.76;89.73;101644.00;25681570;23;20013;-64
2022/05/19 19:48:57;;;;;;;5.55;3.50;;;;;;;20.72;89.28;101649.69;25681424;23;20020;-64
2022/05/19 19:58:59;;;;;;;4.32;3.10;;;;;;;20.71;88.85;101672.34;25680870;23;20075;-64
2022/05/19 20:09:00;;;;;;;4.80;3.33;;;;;;;20.50;89.77;101649.91;25684492;23;20025;-64
2022/05/19 20:19:03;;;;;;;4.85;3.88;;;;;;;20.67;89.57;101687.13;25689124;23;20526;-64
2022/05/19 20:29:04;;;;;;;5.50;4.50;;;;;;;20.64;88.57;101676.56;25687923;23;20448;-64
2022/05/19 20:39:06;;;;;;;4.70;3.75;;;;;;;20.61;88.18;101676.84;25660403;23;20459;-64
2022/05/19 20:49:08;;;;;;;5.43;4.00;;;;;;;20.59;87.55;101689.66;25687770;23;20017;-64
2022/05/19 20:59:10;;;;;;;4.85;3.70;;;;;;;20.57;86.93;101713.28;25687100;23;20012;-64
2022/05/19 21:09:12;;;;;;;4.28;3.38;;;;;;;20.52;85.55;101721.78;25683454;23;20074;-64
2022/05/19 21:19:13;;;;;;;5.32;3.58;;;;;;;20.49;84.69;101724.75;25684084;23;20462;-64
2022/05/19 21:29:15;;;;;;;5.68;3.95;;;;;;;20.47;84.85;101744.84;25685804;23;20078;-64
2022/05/19 21:39:16;;;;;;;5.93;3.28;;;;;;;20.45;84.34;101754.94;25685156;23;20019;-64
2022/05/19 21:49:18;;;;;;;3.92;2.75;;;;;;;20.20;83.72;101746.22;25686235;23;20478;-64
2022/05/19 21:59:19;;;;;;;3.22;2.75;;;;;;;20.38;83.15;101790.63;25685492;23;20016;-64
2022/05/19 22:09:21;;;;;;;5.30;2.90;;;;;;;20.35;82.46;101785.47;25658715;23;20067;-64
2022/05/19 22:19:22;;;;;;;2.95;2.35;;;;;;;20.34;82.29;101783.78;25682302;23;20016;-64
2022/05/19 22:29:24;;;;;;;4.07;2.33;;;;;;;20.30;81.73;101801.22;25682722;23;20012;-64
2022/05/19 22:39:25;;;;;;;2.60;2.20;;;;;;;20.27;81.41;101805.06;25682076;23;20024;-64
2022/05/19 22:49:27;;;;;;;3.08;2.50;;;;;;;19.83;80.50;101744.75;25630776;23;20016;-64
2022/05/19 22:59:28;;;;;;;2.40;2.20;;;;;;;20.08;80.62;101789.53;25682428;23;20017;-64
2022/05/19 23:09:29;;;;;;;2.33;1.77;;;;;;;20.21;80.74;101829.03;25683214;23;20024;-64
2022/05/19 23:19:32;;;;;;;1.95;1.67;;;;;;;20.09;80.33;101822.81;25680348;23;20394;-64
2022/05/19 23:29:34;;;;;;;2.50;1.40;;;;;;;20.17;80.21;101846.50;25680559;23;20083;-64
2022/05/19 23:39:35;;;;;;;1.83;1.50;;;;;;;20.16;79.93;101863.72;25683240;23;20339;-64
2022/05/19 23:49:37;;;;;;;2.00;1.38;;;;;;;20.12;79.46;101853.16;25630535;23;20025;-64
2022/05/19 23:59:38;;;;;;;2.75;1.40;;;;;;;20.08;79.36;101864.34;25682161;23;20021;-64
